Time;durP1;ratioP1;P1;durP2;ratioP2;P2;SDS_P1;SDS_P2;PMS_P1;PMS_P2;Temp;Humidity;BMP_temperature;BMP_pressure;BME280_temperature;BME280_humidity;BME280_pressure;Samples;Min_cycle;Max_cycle;Signal;HPM_P1;HPM_P2
2021/07/24 00:02:11;;;;;;;0.45;0.20;;;;;;;-142.37;100.00;59669.53;4994477;28;20034;-60
2021/07/24 00:04:36;;;;;;;0.40;0.28;;;;;;;-142.37;100.00;59669.53;4994902;28;20117;-60
2021/07/24 00:07:02;;;;;;;0.15;0.10;;;;;;;-142.37;100.00;59669.53;4994691;28;20488;-59
2021/07/24 00:09:29;;;;;;;0.50;0.10;;;;;;;-142.37;100.00;59669.53;4994694;28;20018;-60
2021/07/24 00:11:55;;;;;;;0.32;0.20;;;;;;;-142.37;100.00;59669.53;4994707;28;20360;-60
2021/07/24 00:14:20;;;;;;;0.63;0.10;;;;;;;-142.37;100.00;59669.53;4994612;28;20109;-60
2021/07/24 00:16:46;;;;;;;0.63;0.20;;;;;;;-142.37;100.00;59669.53;4994582;28;20077;-61
2021/07/24 00:19:11;;;;;;;0.60;0.15;;;;;;;-142.37;100.00;59669.53;4994432;28;20030;-60
2021/07/24 00:21:36;;;;;;;0.63;0.20;;;;;;;-142.37;100.00;59669.53;4994498;28;20110;-60
2021/07/24 00:24:02;;;;;;;1.40;0.20;;;;;;;-142.37;100.00;59669.53;4994366;28;20027;-60
2021/07/24 00:26:27;;;;;;;0.40;0.30;;;;;;;-142.37;100.00;59669.53;4994399;28;20492;-60
2021/07/24 00:28:52;;;;;;;1.58;0.32;;;;;;;-142.37;100.00;59669.53;4994389;28;20057;-60
2021/07/24 00:31:18;;;;;;;0.50;0.20;;;;;;;-142.37;100.00;59669.53;4994093;28;20022;-60
2021/07/24 00:33:43;;;;;;;0.45;0.20;;;;;;;-142.37;100.00;59669.53;4994088;28;20462;-59
2021/07/24 00:36:08;;;;;;;0.30;0.20;;;;;;;-142.37;100.00;59669.53;4994213;28;20451;-60
2021/07/24 00:38:34;;;;;;;0.38;0.20;;;;;;;-142.37;100.00;59669.53;4994206;28;20595;-60
2021/07/24 00:41:08;;;;;;;0.22;0.10;;;;;;;-142.37;100.00;59669.53;4994024;28;20030;-60
2021/07/24 00:43:35;;;;;;;0.32;0.10;;;;;;;-142.37;100.00;59669.53;4994018;28;20021;-60
2021/07/24 00:46:02;;;;;;;1.55;0.20;;;;;;;-142.37;100.00;59669.53;4994015;28;20034;-60
2021/07/24 00:48:28;;;;;;;0.77;0.20;;;;;;;-142.37;100.00;59669.53;4993734;28;20033;-60
2021/07/24 00:50:57;;;;;;;1.35;0.10;;;;;;;-142.37;100.00;59669.53;4993917;28;20034;-60
2021/07/24 00:53:24;;;;;;;0.30;0.15;;;;;;;-142.37;100.00;59669.53;4993647;28;20022;-60
2021/07/24 00:55:52;;;;;;;0.20;0.10;;;;;;;-142.37;100.00;59669.53;4993872;28;20487;-60
2021/07/24 00:58:28;;;;;;;0.57;0.10;;;;;;;-142.37;100.00;59669.53;4993679;28;20377;-60
2021/07/24 01:00:55;;;;;;;0.25;0.10;;;;;;;-142.37;100.00;59669.53;4993833;28;20038;-60
2021/07/24 01:03:21;;;;;;;0.40;0.38;;;;;;;-142.37;100.00;59669.53;4993881;28;20708;-60
2021/07/24 01:05:50;;;;;;;0.50;0.28;;;;;;;-142.37;100.00;59669.53;4976405;28;20038;-61
2021/07/24 01:08:16;;;;;;;0.38;0.35;;;;;;;-142.37;100.00;59669.53;4993737;28;20061;-59
2021/07/24 01:10:41;;;;;;;0.82;0.30;;;;;;;-142.37;100.00;59669.53;4993665;28;20069;-60
2021/07/24 01:13:07;;;;;;;0.20;0.20;;;;;;;-142.37;100.00;59669.53;4993793;28;20026;-60
2021/07/24 01:15:32;;;;;;;0.68;0.40;;;;;;;-142.37;100.00;59669.53;4993789;28;20105;-60
2021/07/24 01:17:58;;;;;;;1.52;0.55;;;;;;;-142.37;100.00;59669.53;4999803;28;20021;-60
2021/07/24 01:20:27;;;;;;;1.45;0.30;;;;;;;-142.37;100.00;59669.53;5013291;28;20036;-60
2021/07/24 01:22:54;;;;;;;0.73;0.15;;;;;;;-142.37;100.00;59669.53;5013299;28;20087;-60
2021/07/24 01:25:19;;;;;;;1.63;0.30;;;;;;;-142.37;100.00;59669.53;5013236;28;20018;-60
2021/07/24 01:27:45;;;;;;;0.60;0.20;;;;;;;-142.37;100.00;59669.53;5012957;28;20032;-60
2021/07/24 01:30:12;;;;;;;1.35;0.40;;;;;;;-142.37;100.00;59669.53;5013166;28;20721;-60
2021/07/24 01:32:37;;;;;;;0.32;0.20;;;;;;;-142.37;100.00;59669.53;5012841;28;20484;-59
2021/07/24 01:35:03;;;;;;;1.10;0.30;;;;;;;-142.37;100.00;59669.53;5013048;28;20032;-60
2021/07/24 01:37:28;;;;;;;0.60;0.17;;;;;;;-142.37;100.00;59669.53;5012971;28;20022;-60
2021/07/24 01:39:54;;;;;;;0.50;0.20;;;;;;;-142.37;100.00;59669.53;5013146;28;20378;-60
2021/07/24 01:42:19;;;;;;;0.30;0.22;;;;;;;-142.37;100.00;59669.53;5012826;28;20499;-60
2021/07/24 01:44:44;;;;;;;0.20;0.10;;;;;;;-142.37;100.00;59669.53;5012977;28;20065;-60
2021/07/24 01:47:09;;;;;;;1.17;0.20;;;;;;;-142.37;100.00;59669.53;5013169;28;20026;-59
2021/07/24 01:52:46;;;;;;;1.35;0.30;;;;;;;-142.37;100.00;59669.53;5012981;28;20068;-60
2021/07/24 01:55:25;;;;;;;1.15;0.38;;;;;;;-142.37;100.00;59669.53;5012733;28;20528;-60
2021/07/24 01:57:53;;;;;;;0.88;0.20;;;;;;;-142.37;100.00;59669.53;5013028;28;20038;-60
2021/07/24 02:00:18;;;;;;;0.75;0.30;;;;;;;-142.37;100.00;59669.53;5012498;28;20042;-60
2021/07/24 02:02:49;;;;;;;0.50;0.17;;;;;;;-142.37;100.00;59669.53;5013558;28;20021;-60
2021/07/24 02:05:25;;;;;;;2.05;0.40;;;;;;;-142.37;100.00;59669.53;5016365;28;20022;-60
2021/07/24 02:07:51;;;;;;;1.17;0.30;;;;;;;-142.37;100.00;59669.53;5016706;28;20029;-60
2021/07/24 02:10:16;;;;;;;0.60;0.20;;;;;;;-142.37;100.00;59669.53;5016443;28;20037;-60
2021/07/24 02:12:41;;;;;;;1.02;0.20;;;;;;;-142.37;100.00;59669.53;5016465;28;20053;-60
2021/07/24 02:15:07;;;;;;;0.45;0.20;;;;;;;-142.37;100.00;59669.53;5016414;28;20053;-60
2021/07/24 02:17:36;;;;;;;0.57;0.20;;;;;;;-142.37;100.00;59669.53;5013668;28;20080;-60
2021/07/24 02:20:03;;;;;;;0.22;0.20;;;;;;;-142.37;100.00;59669.53;4979276;28;20033;-60
2021/07/24 02:22:29;;;;;;;1.98;0.40;;;;;;;-142.37;100.00;59669.53;4996573;28;20077;-59
2021/07/24 02:24:54;;;;;;;1.40;0.35;;;;;;;-142.37;100.00;59669.53;4996841;28;20031;-59
2021/07/24 02:27:19;;;;;;;0.68;0.28;;;;;;;-142.37;100.00;59669.53;4996585;28;20030;-60
2021/07/24 02:29:45;;;;;;;1.25;0.30;;;;;;;-142.37;100.00;59669.53;4996636;28;20516;-60
2021/07/24 02:32:10;;;;;;;0.20;0.10;;;;;;;-142.37;100.00;59669.53;4996397;28;20033;-60
2021/07/24 02:34:35;;;;;;;0.57;0.22;;;;;;;-142.37;100.00;59669.53;4996621;28;20038;-59
2021/07/24 02:37:01;;;;;;;0.30;0.20;;;;;;;-142.37;100.00;59669.53;4996044;28;20034;-60
2021/07/24 02:39:26;;;;;;;1.10;0.30;;;;;;;-142.37;100.00;59669.53;4996455;28;20461;-60
2021/07/24 02:41:51;;;;;;;0.70;0.20;;;;;;;-142.37;100.00;59669.53;4996088;28;20026;-60
2021/07/24 02:44:17;;;;;;;0.70;0.20;;;;;;;-142.37;100.00;59669.53;4996035;28;20370;-60
2021/07/24 02:46:42;;;;;;;0.30;0.20;;;;;;;-142.37;100.00;59669.53;5011619;28;20464;-59
2021/07/24 02:49:09;;;;;;;0.70;0.38;;;;;;;-142.37;100.00;59669.53;5003606;28;20030;-60
2021/07/24 02:51:34;;;;;;;0.90;0.25;;;;;;;-142.37;100.00;59669.53;4996301;28;20396;-60
2021/07/24 02:54:00;;;;;;;0.68;0.30;;;;;;;-142.37;100.00;59669.53;4996026;28;20027;-60
2021/07/24 02:56:25;;;;;;;4.22;0.60;;;;;;;-142.37;100.00;59669.53;4995835;28;20365;-60
2021/07/24 02:58:50;;;;;;;1.55;0.50;;;;;;;-142.37;100.00;59669.53;4995948;28;20042;-60
2021/07/24 03:01:16;;;;;;;0.20;0.20;;;;;;;-142.37;100.00;59669.53;4995567;28;20041;-59
2021/07/24 03:03:41;;;;;;;0.85;0.20;;;;;;;-142.37;100.00;59669.53;4995924;28;20112;-59
2021/07/24 03:06:06;;;;;;;0.82;0.30;;;;;;;-142.37;100.00;59669.53;4995439;28;20030;-60
2021/07/24 03:08:32;;;;;;;0.43;0.20;;;;;;;-142.37;100.00;59669.53;4996093;28;20118;-60
2021/07/24 03:10:57;;;;;;;0.43;0.30;;;;;;;-142.37;100.00;59669.53;4995899;28;20036;-59
2021/07/24 03:13:22;;;;;;;0.38;0.20;;;;;;;-142.37;100.00;59669.53;4995915;28;20461;-59
2021/07/24 03:15:48;;;;;;;0.20;0.10;;;;;;;-142.37;100.00;59669.53;4995045;28;20026;-59
2021/07/24 03:18:13;;;;;;;0.35;0.15;;;;;;;-142.37;100.00;59669.53;5003756;28;20076;-59
2021/07/24 03:20:38;;;;;;;0.70;0.30;;;;;;;-142.37;100.00;59669.53;5015243;28;20030;-60
2021/07/24 03:23:04;;;;;;;0.82;0.22;;;;;;;-142.37;100.00;59669.53;5015162;28;20026;-60
2021/07/24 03:25:29;;;;;;;0.47;0.40;;;;;;;-142.37;100.00;59669.53;5015056;28;20486;-59
2021/07/24 03:27:55;;;;;;;0.43;0.20;;;;;;;-142.37;100.00;59669.53;5014975;28;20037;-60
2021/07/24 03:30:20;;;;;;;0.50;0.30;;;;;;;-142.37;100.00;59669.53;5014867;28;20025;-60
2021/07/24 03:32:46;;;;;;;0.65;0.30;;;;;;;-142.37;100.00;59669.53;5015130;28;20049;-59
2021/07/24 03:35:11;;;;;;;0.50;0.40;;;;;;;-142.37;100.00;59669.53;5014802;28;20068;-60
2021/07/24 03:37:37;;;;;;;1.00;0.20;;;;;;;-142.37;100.00;59669.53;5014347;28;20376;-59
2021/07/24 03:40:03;;;;;;;0.35;0.30;;;;;;;-142.37;100.00;59669.53;5014739;28;20033;-59
2021/07/24 03:42:29;;;;;;;0.57;0.30;;;;;;;-142.37;100.00;59669.53;5014643;28;20419;-59
2021/07/24 03:44:54;;;;;;;0.93;0.40;;;;;;;-142.37;100.00;59669.53;5014478;28;20108;-60
2021/07/24 03:47:19;;;;;;;0.57;0.32;;;;;;;-142.37;100.00;59669.53;5014660;28;20109;-60
2021/07/24 03:49:45;;;;;;;1.55;0.40;;;;;;;-142.37;100.00;59669.53;5014750;28;20029;-60
2021/07/24 03:52:10;;;;;;;1.05;0.30;;;;;;;-142.37;100.00;59669.53;5014592;28;20018;-59
2021/07/24 03:54:35;;;;;;;0.40;0.20;;;;;;;-142.37;100.00;59669.53;4996885;28;20038;-59
2021/07/24 03:57:01;;;;;;;0.68;0.52;;;;;;;-142.37;100.00;59669.53;5014498;28;20030;-60
2021/07/24 03:59:26;;;;;;;1.00;0.40;;;;;;;-142.37;100.00;59669.53;5014159;28;20050;-59
2021/07/24 04:01:54;;;;;;;0.52;0.32;;;;;;;-142.37;100.00;59669.53;5014431;28;20025;-59
2021/07/24 04:04:19;;;;;;;0.30;0.20;;;;;;;-142.37;100.00;59669.53;5014069;28;20096;-60
2021/07/24 04:06:45;;;;;;;0.50;0.38;;;;;;;-142.37;100.00;59669.53;5014531;28;20054;-59
2021/07/24 04:09:11;;;;;;;1.40;0.50;;;;;;;-142.37;100.00;59669.53;5014076;28;20057;-59
2021/07/24 04:11:36;;;;;;;0.32;0.30;;;;;;;-142.37;100.00;59669.53;5014032;28;20087;-59
2021/07/24 04:14:03;;;;;;;0.50;0.40;;;;;;;-142.37;100.00;59669.53;5013124;28;20113;-59
2021/07/24 04:16:30;;;;;;;0.75;0.10;;;;;;;-142.37;100.00;59669.53;5014335;28;20484;-59
2021/07/24 04:18:58;;;;;;;0.45;0.38;;;;;;;-142.37;100.00;59669.53;5000154;28;20026;-59
2021/07/24 04:21:23;;;;;;;0.35;0.35;;;;;;;-142.37;100.00;59669.53;4994162;28;20110;-59
2021/07/24 04:23:48;;;;;;;1.05;0.38;;;;;;;-142.37;100.00;59669.53;4993522;28;20109;-60
2021/07/24 04:26:14;;;;;;;0.20;0.20;;;;;;;-142.37;100.00;59669.53;4993164;28;20022;-60
2021/07/24 04:28:39;;;;;;;0.30;0.30;;;;;;;-142.37;100.00;59669.53;5000650;28;20068;-60
2021/07/24 04:31:11;;;;;;;1.20;0.30;;;;;;;-142.37;100.00;59669.53;5013970;28;20022;-60
2021/07/24 04:33:36;;;;;;;0.30;0.30;;;;;;;-142.37;100.00;59669.53;5013827;28;20036;-59
2021/07/24 04:36:02;;;;;;;1.65;0.30;;;;;;;-142.37;100.00;59669.53;5013786;28;20018;-59
2021/07/24 04:38:27;;;;;;;1.00;0.20;;;;;;;-142.37;100.00;59669.53;5013835;28;20036;-60
2021/07/24 04:40:52;;;;;;;0.55;0.30;;;;;;;-142.37;100.00;59669.53;5013704;28;20416;-60
2021/07/24 04:43:19;;;;;;;0.40;0.15;;;;;;;-142.37;100.00;59669.53;5013778;28;20029;-60
2021/07/24 04:45:45;;;;;;;0.50;0.20;;;;;;;-142.37;100.00;59669.53;5013666;28;20461;-60
2021/07/24 04:48:11;;;;;;;1.40;0.20;;;;;;;-142.37;100.00;59669.53;5013233;28;20052;-60
2021/07/24 04:50:46;;;;;;;0.77;0.30;;;;;;;-142.37;100.00;59669.53;5013531;28;20041;-60
2021/07/24 04:53:12;;;;;;;1.00;0.52;;;;;;;-142.37;100.00;59669.53;5013685;28;20077;-60
2021/07/24 04:55:38;;;;;;;1.10;0.30;;;;;;;-142.37;100.00;59669.53;5013437;28;20029;-60
2021/07/24 04:58:09;;;;;;;1.10;0.40;;;;;;;-142.37;100.00;59669.53;5013252;28;20381;-60
2021/07/24 05:00:40;;;;;;;0.20;0.20;;;;;;;-142.37;100.00;59669.53;5013259;28;20124;-60
2021/07/24 05:03:06;;;;;;;0.40;0.17;;;;;;;-142.37;100.00;59669.53;5013466;28;20026;-59
2021/07/24 05:05:34;;;;;;;0.82;0.32;;;;;;;-142.37;100.00;59669.53;5013475;28;20025;-60
2021/07/24 05:07:59;;;;;;;0.43;0.30;;;;;;;-142.37;100.00;59669.53;5013314;28;20040;-60
2021/07/24 05:10:25;;;;;;;0.63;0.28;;;;;;;-142.37;100.00;59669.53;5013379;28;20018;-60
2021/07/24 05:12:50;;;;;;;1.08;0.30;;;;;;;-142.37;100.00;59669.53;5013561;28;20025;-60
2021/07/24 05:15:15;;;;;;;1.52;0.45;;;;;;;-142.37;100.00;59669.53;5013263;28;20469;-60
2021/07/24 05:17:41;;;;;;;0.68;0.32;;;;;;;-142.37;100.00;59669.53;5009480;28;20466;-60
2021/07/24 05:20:08;;;;;;;0.60;0.30;;;;;;;-142.37;100.00;59669.53;4993658;28;20042;-60
2021/07/24 05:22:33;;;;;;;0.40;0.25;;;;;;;-142.37;100.00;59669.53;4993620;28;20475;-60
2021/07/24 05:24:58;;;;;;;1.08;0.30;;;;;;;-142.37;100.00;59669.53;4993698;28;20109;-60
2021/07/24 05:27:24;;;;;;;0.77;0.40;;;;;;;-142.37;100.00;59669.53;4993473;28;20126;-60
2021/07/24 05:29:49;;;;;;;0.57;0.30;;;;;;;-142.37;100.00;59669.53;4976234;28;20117;-60
2021/07/24 05:32:14;;;;;;;0.20;0.10;;;;;;;-142.37;100.00;59669.53;4993462;28;20061;-60
2021/07/24 05:34:40;;;;;;;1.17;0.35;;;;;;;-142.37;100.00;59669.53;4993576;28;20018;-60
2021/07/24 05:37:05;;;;;;;0.63;0.40;;;;;;;-142.37;100.00;59669.53;4993326;28;20038;-60
2021/07/24 05:39:30;;;;;;;0.17;0.17;;;;;;;-142.37;100.00;59669.53;4996839;28;20113;-60
2021/07/24 05:41:56;;;;;;;0.38;0.35;;;;;;;-142.37;100.00;59669.53;4997448;28;20030;-60
2021/07/24 05:44:21;;;;;;;1.20;0.52;;;;;;;-142.37;100.00;59669.53;4997349;28;20400;-60
2021/07/24 05:46:47;;;;;;;0.32;0.20;;;;;;;-142.37;100.00;59669.53;4997013;28;20384;-61
2021/07/24 05:49:13;;;;;;;1.15;0.50;;;;;;;-142.37;100.00;59669.53;4997346;28;20077;-60
2021/07/24 05:51:41;;;;;;;0.50;0.30;;;;;;;-142.37;100.00;59669.53;4997389;28;20374;-60
2021/07/24 05:54:14;;;;;;;0.95;0.25;;;;;;;-142.37;100.00;59669.53;4997108;28;20053;-60
2021/07/24 05:56:40;;;;;;;0.20;0.20;;;;;;;-142.37;100.00;59669.53;4997179;28;20037;-60
2021/07/24 05:59:05;;;;;;;0.75;0.30;;;;;;;-142.37;100.00;59669.53;4996833;28;20397;-61
2021/07/24 06:01:30;;;;;;;0.40;0.28;;;;;;;-142.37;100.00;59669.53;4996636;28;20058;-60
2021/07/24 06:03:56;;;;;;;0.50;0.40;;;;;;;-142.37;100.00;59669.53;4997138;28;20029;-60
2021/07/24 06:06:22;;;;;;;1.30;0.30;;;;;;;-142.37;100.00;59669.53;4996919;28;20064;-60
2021/07/24 06:08:47;;;;;;;1.40;0.43;;;;;;;-142.37;100.00;59669.53;4997094;28;20034;-60
2021/07/24 06:11:12;;;;;;;0.57;0.40;;;;;;;-142.37;100.00;59669.53;4996635;28;20045;-60
2021/07/24 06:13:37;;;;;;;0.77;0.50;;;;;;;-142.37;100.00;59669.53;4996966;28;20461;-60
2021/07/24 06:16:03;;;;;;;1.63;0.35;;;;;;;-142.37;100.00;59669.53;4996625;28;20026;-60
2021/07/24 06:18:28;;;;;;;0.30;0.28;;;;;;;-142.37;100.00;59669.53;4996780;28;20057;-60
2021/07/24 06:20:54;;;;;;;1.08;0.40;;;;;;;-142.37;100.00;59669.53;4996682;28;20023;-60
2021/07/24 06:23:19;;;;;;;1.73;0.40;;;;;;;-142.37;100.00;59669.53;4996740;28;20028;-60
2021/07/24 06:25:46;;;;;;;0.88;0.30;;;;;;;-142.37;100.00;59669.53;4996607;28;20421;-60
2021/07/24 06:28:12;;;;;;;0.40;0.30;;;;;;;-142.37;100.00;59669.53;4996630;28;20105;-60
2021/07/24 06:30:38;;;;;;;0.55;0.45;;;;;;;-142.37;100.00;59669.53;4996602;28;20529;-60
2021/07/24 06:33:05;;;;;;;1.05;0.25;;;;;;;-142.37;100.00;59669.53;4996526;28;20105;-60
2021/07/24 06:35:30;;;;;;;0.98;0.40;;;;;;;-142.37;100.00;59669.53;4996499;28;20054;-60
2021/07/24 06:37:55;;;;;;;0.38;0.38;;;;;;;-142.37;100.00;59669.53;4996248;28;20058;-60
2021/07/24 06:40:21;;;;;;;0.98;0.38;;;;;;;-142.37;100.00;59669.53;4996022;28;20022;-60
2021/07/24 06:42:46;;;;;;;0.20;0.20;;;;;;;-142.37;100.00;59669.53;4996455;28;20030;-60
2021/07/24 06:45:12;;;;;;;0.85;0.20;;;;;;;-142.37;100.00;59669.53;4996139;28;20030;-60
2021/07/24 06:47:38;;;;;;;0.45;0.43;;;;;;;-142.37;100.00;59669.53;4996002;28;20026;-60
2021/07/24 06:50:04;;;;;;;1.33;0.40;;;;;;;-142.37;100.00;59669.53;4995310;28;20028;-60
2021/07/24 06:52:29;;;;;;;1.85;0.63;;;;;;;-142.37;100.00;59669.53;4996167;28;20022;-60
2021/07/24 06:54:54;;;;;;;0.60;0.52;;;;;;;-142.37;100.00;59669.53;4996269;28;20034;-60
2021/07/24 06:57:20;;;;;;;0.47;0.20;;;;;;;-142.37;100.00;59669.53;4996100;28;20026;-60
2021/07/24 06:59:45;;;;;;;0.93;0.20;;;;;;;-142.37;100.00;59669.53;4995351;28;20058;-60
2021/07/24 07:02:11;;;;;;;1.00;0.30;;;;;;;-142.37;100.00;59669.53;4999423;28;20053;-60
2021/07/24 07:04:37;;;;;;;0.80;0.40;;;;;;;-142.37;100.00;59669.53;5014750;28;20478;-60
2021/07/24 07:07:03;;;;;;;0.77;0.50;;;;;;;-142.37;100.00;59669.53;5015575;28;20114;-60
2021/07/24 07:09:28;;;;;;;0.52;0.30;;;;;;;-142.37;100.00;59669.53;5015605;28;20072;-60
2021/07/24 07:11:57;;;;;;;0.73;0.30;;;;;;;-142.37;100.00;59669.53;5015608;28;20021;-60
2021/07/24 07:14:23;;;;;;;0.65;0.40;;;;;;;-142.37;100.00;59669.53;5015276;28;20117;-60
2021/07/24 07:16:49;;;;;;;1.00;0.50;;;;;;;-142.37;100.00;59669.53;5015469;28;20049;-60
2021/07/24 07:19:14;;;;;;;0.65;0.20;;;;;;;-142.37;100.00;59669.53;5015034;28;20382;-60
2021/07/24 07:21:39;;;;;;;2.47;0.40;;;;;;;-142.37;100.00;59669.53;5015175;28;20030;-59
2021/07/24 07:24:05;;;;;;;0.50;0.30;;;;;;;-142.37;100.00;59669.53;5014783;28;20040;-59
2021/07/24 07:26:32;;;;;;;0.20;0.20;;;;;;;-142.37;100.00;59669.53;5015074;28;20469;-60
2021/07/24 07:29:02;;;;;;;0.52;0.28;;;;;;;-142.37;100.00;59669.53;5015204;28;20034;-60
2021/07/24 07:31:32;;;;;;;1.05;0.30;;;;;;;-142.37;100.00;59669.53;5015037;28;20025;-60
2021/07/24 07:33:57;;;;;;;0.63;0.38;;;;;;;-142.37;100.00;59669.53;5014805;28;20033;-60
2021/07/24 07:36:23;;;;;;;0.40;0.20;;;;;;;-142.37;100.00;59669.53;5014613;28;20037;-60
2021/07/24 07:38:48;;;;;;;0.80;0.30;;;;;;;-142.37;100.00;59669.53;5015245;28;20025;-60
2021/07/24 07:41:14;;;;;;;0.57;0.30;;;;;;;-142.37;100.00;59669.53;5014833;28;20600;-60
2021/07/24 07:43:40;;;;;;;0.80;0.20;;;;;;;-142.37;100.00;59669.53;5014988;28;20052;-60
2021/07/24 07:46:05;;;;;;;0.77;0.40;;;;;;;-142.37;100.00;59669.53;5014594;28;20460;-60
2021/07/24 07:48:35;;;;;;;1.40;0.30;;;;;;;-142.37;100.00;59669.53;5014467;28;20460;-60
2021/07/24 07:51:01;;;;;;;1.17;0.22;;;;;;;-142.37;100.00;59669.53;5014753;28;20057;-60
2021/07/24 07:53:26;;;;;;;1.27;0.35;;;;;;;-142.37;100.00;59669.53;5014509;28;20025;-60
2021/07/24 07:55:51;;;;;;;0.30;0.20;;;;;;;-142.37;100.00;59669.53;5014544;28;20060;-60
2021/07/24 07:58:17;;;;;;;0.20;0.20;;;;;;;-142.37;100.00;59669.53;5014360;28;20692;-60
2021/07/24 08:00:42;;;;;;;0.85;0.38;;;;;;;-142.37;100.00;59669.53;5014169;28;20050;-60
2021/07/24 08:03:07;;;;;;;0.73;0.38;;;;;;;-142.37;100.00;59669.53;5013935;28;20022;-60
2021/07/24 08:05:33;;;;;;;0.82;0.60;;;;;;;-142.37;100.00;59669.53;5014561;28;20435;-60
2021/07/24 08:07:58;;;;;;;0.30;0.30;;;;;;;-142.37;100.00;59669.53;5014344;28;20532;-60
2021/07/24 08:10:24;;;;;;;1.30;0.30;;;;;;;-142.37;100.00;59669.53;5013940;28;20033;-60
2021/07/24 08:12:50;;;;;;;2.17;0.10;;;;;;;-142.37;100.00;59669.53;5014374;28;20018;-60
2021/07/24 08:15:16;;;;;;;0.68;0.20;;;;;;;-142.37;100.00;59669.53;5014419;28;20120;-60
2021/07/24 08:17:42;;;;;;;0.40;0.28;;;;;;;-142.37;100.00;59669.53;5010165;28;20134;-60
2021/07/24 08:20:08;;;;;;;0.57;0.20;;;;;;;-142.37;100.00;59669.53;4994440;28;20045;-60
2021/07/24 08:22:34;;;;;;;0.93;0.30;;;;;;;-142.37;100.00;59669.53;4994493;28;20030;-60
2021/07/24 08:25:00;;;;;;;0.30;0.20;;;;;;;-142.37;100.00;59669.53;4994382;28;20031;-60
2021/07/24 08:27:25;;;;;;;0.30;0.20;;;;;;;-142.37;100.00;59669.53;4993701;28;20093;-60
2021/07/24 08:29:54;;;;;;;0.20;0.20;;;;;;;-142.37;100.00;59669.53;5000736;28;20358;-60
2021/07/24 08:32:20;;;;;;;1.23;0.50;;;;;;;-142.37;100.00;59669.53;5012776;28;20096;-60
2021/07/24 08:34:52;;;;;;;0.50;0.38;;;;;;;-142.37;100.00;59669.53;5013804;28;20038;-60
2021/07/24 08:37:18;;;;;;;0.85;0.30;;;;;;;-142.37;100.00;59669.53;5013686;28;20113;-60
2021/07/24 08:39:44;;;;;;;0.68;0.30;;;;;;;-142.37;100.00;59669.53;5013584;28;20512;-60
2021/07/24 08:42:29;;;;;;;0.95;0.22;;;;;;;-142.37;100.00;59669.53;5013745;28;20033;-60
2021/07/24 08:44:56;;;;;;;1.10;0.20;;;;;;;-142.37;100.00;59669.53;5013858;28;20029;-60
2021/07/24 08:47:21;;;;;;;0.90;0.17;;;;;;;-142.37;100.00;59669.53;5013656;28;20037;-59
2021/07/24 08:49:47;;;;;;;0.85;0.40;;;;;;;-142.37;100.00;59669.53;5013606;28;20029;-60
2021/07/24 08:52:18;;;;;;;0.60;0.30;;;;;;;-142.37;100.00;59669.53;5013594;28;20025;-60
2021/07/24 08:54:43;;;;;;;1.25;0.60;;;;;;;-142.37;100.00;59669.53;5013673;28;20524;-60
2021/07/24 08:57:11;;;;;;;0.45;0.30;;;;;;;-142.37;100.00;59669.53;5013572;28;20026;-60
2021/07/24 08:59:38;;;;;;;1.73;0.40;;;;;;;-142.37;100.00;59669.53;5041763;23;20408;-60
2021/07/24 09:02:04;;;;;;;1.45;0.35;;;;;;;-142.37;100.00;59669.53;5052985;28;20040;-60
2021/07/24 09:04:31;;;;;;;2.05;0.40;;;;;;;-142.37;100.00;59669.53;5053206;28;20029;-60
2021/07/24 09:07:01;;;;;;;0.73;0.38;;;;;;;-142.37;100.00;59669.53;5053255;28;20103;-60
2021/07/24 09:09:27;;;;;;;2.28;0.30;;;;;;;-142.37;100.00;59669.53;5036061;28;20109;-60
2021/07/24 09:11:52;;;;;;;2.25;0.60;;;;;;;-142.37;100.00;59669.53;5033184;28;20112;-60
2021/07/24 09:14:17;;;;;;;0.30;0.28;;;;;;;-142.37;100.00;59669.53;5032415;28;20033;-60
2021/07/24 09:16:44;;;;;;;0.75;0.38;;;;;;;-142.37;100.00;59669.53;5033155;28;20437;-60
2021/07/24 09:19:10;;;;;;;0.75;0.28;;;;;;;-142.37;100.00;59669.53;5032997;28;20030;-60
2021/07/24 09:21:38;;;;;;;0.57;0.35;;;;;;;-142.37;100.00;59669.53;5033092;28;20376;-60
2021/07/24 09:24:23;;;;;;;0.20;0.20;;;;;;;-142.37;100.00;59669.53;5033185;28;20372;-60
2021/07/24 09:26:49;;;;;;;0.65;0.20;;;;;;;-142.37;100.00;59669.53;5032934;28;20090;-60
2021/07/24 09:29:16;;;;;;;1.67;0.82;;;;;;;-142.37;100.00;59669.53;5032789;28;20026;-60
2021/07/24 09:31:43;;;;;;;0.85;0.30;;;;;;;-142.37;100.00;59669.53;5033124;28;20021;-60
2021/07/24 09:34:09;;;;;;;0.50;0.20;;;;;;;-142.37;100.00;59669.53;5031870;28;20472;-60
2021/07/24 09:36:37;;;;;;;0.47;0.10;;;;;;;-142.37;100.00;59669.53;5032741;28;20096;-60
2021/07/24 09:39:13;;;;;;;0.40;0.15;;;;;;;-142.37;100.00;59669.53;5032971;28;20468;-60
2021/07/24 09:41:41;;;;;;;1.45;0.25;;;;;;;-142.37;100.00;59669.53;5032705;28;20381;-60
2021/07/24 09:44:06;;;;;;;0.75;0.50;;;;;;;-142.37;100.00;59669.53;5032877;28;20025;-60
2021/07/24 09:46:32;;;;;;;0.60;0.30;;;;;;;-142.37;100.00;59669.53;5032443;28;20028;-59
2021/07/24 09:49:13;;;;;;;1.27;0.43;;;;;;;-142.37;100.00;59669.53;5032662;28;20472;-60
2021/07/24 09:51:44;;;;;;;0.25;0.15;;;;;;;-142.37;100.00;59669.53;5032786;28;20021;-60
2021/07/24 09:54:27;;;;;;;1.08;0.20;;;;;;;-142.37;100.00;59669.53;5032735;28;20595;-60
2021/07/24 09:56:53;;;;;;;0.57;0.20;;;;;;;-142.37;100.00;59669.53;5032841;28;20029;-60
2021/07/24 09:59:29;;;;;;;0.98;0.40;;;;;;;-142.37;100.00;59669.53;5032552;28;20116;-60
2021/07/24 10:02:03;;;;;;;0.45;0.20;;;;;;;-142.37;100.00;59669.53;5017432;28;20061;-60
2021/07/24 10:04:30;;;;;;;1.03;0.33;;;;;;;-142.37;100.00;59669.53;5012857;28;20037;-60
2021/07/24 10:07:06;;;;;;;1.00;0.30;;;;;;;-142.37;100.00;59669.53;5013155;28;20030;-59
2021/07/24 10:09:33;;;;;;;1.35;0.45;;;;;;;-142.37;100.00;59669.53;5012802;28;20045;-60
2021/07/24 10:12:08;;;;;;;0.60;0.20;;;;;;;-142.37;100.00;59669.53;5012849;28;20026;-60
2021/07/24 10:14:34;;;;;;;0.47;0.20;;;;;;;-142.37;100.00;59669.53;5013021;28;20462;-60
2021/07/24 10:17:00;;;;;;;1.02;0.30;;;;;;;-142.37;100.00;59669.53;5012601;28;20112;-60
2021/07/24 10:19:27;;;;;;;0.77;0.38;;;;;;;-142.37;100.00;59669.53;5012702;28;20046;-59
2021/07/24 10:21:54;;;;;;;0.77;0.30;;;;;;;-142.37;100.00;59669.53;5012759;28;20029;-59
2021/07/24 10:24:20;;;;;;;1.77;0.38;;;;;;;-142.37;100.00;59669.53;5012963;28;20431;-60
2021/07/24 10:27:07;;;;;;;0.43;0.20;;;;;;;-142.37;100.00;59669.53;5016240;28;20026;-60
2021/07/24 10:30:00;;;;;;;0.22;0.22;;;;;;;-142.37;100.00;59669.53;5016408;28;20026;-60
2021/07/24 10:32:29;;;;;;;0.52;0.20;;;;;;;-142.37;100.00;59669.53;5016144;28;20025;-60
2021/07/24 10:34:55;;;;;;;1.75;0.28;;;;;;;-142.37;100.00;59669.53;5016002;28;20025;-60
2021/07/24 10:37:34;;;;;;;0.93;0.43;;;;;;;-142.37;100.00;59669.53;5016019;28;20025;-60
2021/07/24 10:40:15;;;;;;;0.90;0.20;;;;;;;-142.37;100.00;59669.53;5016101;28;20381;-60
2021/07/24 10:42:41;;;;;;;2.25;0.35;;;;;;;-142.37;100.00;59669.53;5015703;28;20540;-60
2021/07/24 10:45:49;;;;;;;0.60;0.38;;;;;;;-142.37;100.00;59669.53;5016020;28;20105;-60
2021/07/24 10:48:14;;;;;;;0.50;0.20;;;;;;;-142.37;100.00;59669.53;4973969;28;20121;-60
2021/07/24 10:50:54;;;;;;;1.90;0.20;;;;;;;-142.37;100.00;59669.53;4974307;28;20117;-60
2021/07/24 10:53:21;;;;;;;0.38;0.38;;;;;;;-142.37;100.00;59669.53;4974557;28;20047;-60
2021/07/24 10:55:51;;;;;;;1.48;0.30;;;;;;;-142.37;100.00;59669.53;4974663;28;20034;-60
2021/07/24 10:58:18;;;;;;;0.20;0.13;;;;;;;-142.37;100.00;59669.53;4974530;28;20031;-58
2021/07/24 11:00:54;;;;;;;0.20;0.10;;;;;;;-142.37;100.00;59669.53;4974355;28;20062;-58
2021/07/24 11:03:30;;;;;;;0.68;0.47;;;;;;;-142.37;100.00;59669.53;4972882;28;20677;-58
2021/07/24 11:05:55;;;;;;;1.77;0.40;;;;;;;-142.37;100.00;59669.53;4974007;28;20038;-58
2021/07/24 11:08:58;;;;;;;0.20;0.20;;;;;;;-142.37;100.00;59669.53;4974392;28;20042;-58
2021/07/24 11:12:02;;;;;;;0.35;0.20;;;;;;;-142.37;100.00;59669.53;4974111;28;20038;-58
2021/07/24 11:14:30;;;;;;;0.80;0.40;;;;;;;-142.37;100.00;59669.53;4916527;29;20047;-60